createdAt,value
2019-02-05T00:00:13.605Z,3.96
2019-02-05T00:01:13.685Z,4.01
2019-02-05T00:02:13.772Z,4.08
2019-02-05T00:03:13.855Z,4.00
2019-02-05T00:04:13.942Z,3.96
2019-02-05T00:05:14.027Z,4.03
2019-02-05T00:06:14.119Z,4.15
2019-02-05T00:07:14.207Z,4.04
2019-02-05T00:08:14.313Z,4.07
2019-02-05T00:09:14.369Z,4.03
2019-02-05T00:10:14.456Z,4.06
2019-02-05T00:11:14.544Z,4.10
2019-02-05T00:12:14.627Z,4.10
2019-02-05T00:13:14.804Z,4.07
2019-02-05T00:14:14.798Z,4.08
2019-02-05T00:15:14.891Z,4.10
2019-02-05T00:16:14.975Z,4.10
2019-02-05T00:17:15.064Z,4.08
2019-02-05T00:18:15.152Z,4.18
2019-02-05T00:19:15.242Z,4.10
2019-02-05T00:20:15.342Z,4.15
2019-02-05T00:21:15.415Z,4.21
2019-02-05T00:22:15.500Z,4.15
2019-02-05T00:23:15.586Z,4.06
2019-02-05T00:24:15.681Z,4.12
2019-02-05T00:25:15.767Z,4.07
2019-02-05T00:26:15.850Z,4.14
2019-02-05T00:27:15.937Z,4.08
2019-02-05T00:28:16.021Z,4.15
2019-02-05T00:29:16.110Z,4.03
2019-02-05T00:30:16.196Z,4.08
2019-02-05T00:31:16.281Z,4.12
2019-02-05T00:32:16.369Z,4.10
2019-02-05T00:33:16.461Z,4.12
2019-02-05T00:34:16.549Z,4.07
2019-02-05T00:35:16.631Z,4.26
2019-02-05T00:36:16.729Z,4.24
2019-02-05T00:37:16.809Z,4.12
2019-02-05T00:38:16.912Z,4.07
2019-02-05T00:39:16.997Z,4.06
2019-02-05T00:40:17.102Z,4.08
2019-02-05T00:41:17.159Z,4.12
2019-02-05T00:42:17.247Z,4.04
2019-02-05T00:43:17.333Z,4.12
2019-02-05T00:44:17.423Z,4.10
2019-02-05T00:45:17.509Z,4.16
2019-02-05T00:46:17.599Z,4.18
2019-02-05T00:47:17.689Z,4.12
2019-02-05T00:48:17.777Z,4.24
2019-02-05T00:49:17.868Z,4.15
2019-02-05T00:50:17.952Z,4.08
2019-02-05T00:51:18.038Z,4.15
2019-02-05T00:52:18.122Z,4.12
2019-02-05T00:53:18.210Z,4.10
2019-02-05T00:54:18.300Z,4.12
2019-02-05T00:55:18.383Z,4.08
2019-02-05T00:56:18.469Z,4.14
2019-02-05T00:57:18.555Z,4.03
2019-02-05T00:58:18.639Z,4.00
2019-02-05T00:59:18.740Z,3.94
2019-02-05T01:00:18.815Z,3.96
2019-02-05T01:01:18.919Z,4.03
2019-02-05T01:02:18.992Z,3.96
2019-02-05T01:03:19.082Z,3.94
2019-02-05T01:04:19.173Z,3.96
2019-02-05T01:05:19.255Z,3.88
2019-02-05T01:06:19.344Z,3.96
2019-02-05T01:07:19.430Z,3.97
2019-02-05T01:08:19.517Z,3.94
2019-02-05T01:09:19.617Z,3.86
2019-02-05T01:10:19.705Z,3.90
2019-02-05T01:11:19.790Z,3.86
2019-02-05T01:12:19.880Z,3.78
2019-02-05T01:13:19.970Z,3.75
2019-02-05T01:14:20.055Z,3.89
2019-02-05T01:15:20.141Z,3.88
2019-02-05T01:16:20.235Z,3.72
2019-02-05T01:17:30.986Z,3.78
2019-02-05T01:18:20.428Z,3.72
2019-02-05T01:19:20.515Z,3.76
2019-02-05T01:20:20.602Z,3.79
2019-02-05T01:21:20.699Z,3.80
2019-02-05T01:22:20.785Z,3.75
2019-02-05T01:23:20.869Z,3.82
2019-02-05T01:24:20.953Z,3.83
2019-02-05T01:25:21.039Z,3.79
2019-02-05T01:26:29.168Z,3.85
2019-02-05T01:27:21.217Z,3.85
2019-02-05T01:28:21.299Z,3.72
2019-02-05T01:29:21.382Z,3.68
2019-02-05T01:30:21.480Z,3.75
2019-02-05T01:31:21.553Z,3.80
2019-02-05T01:32:21.645Z,3.70
2019-02-05T01:33:21.730Z,3.71
2019-02-05T01:34:21.815Z,3.62
2019-02-05T01:35:21.897Z,3.64
2019-02-05T01:36:22.010Z,3.67
2019-02-05T01:37:22.077Z,3.68
2019-02-05T01:38:22.164Z,3.72
2019-02-05T01:39:22.253Z,3.65
2019-02-05T01:40:22.333Z,3.76
2019-02-05T01:41:22.418Z,3.64
2019-02-05T01:42:22.496Z,3.60
2019-02-05T01:43:22.592Z,3.58
2019-02-05T01:44:22.677Z,3.58
2019-02-05T01:45:22.764Z,3.57
2019-02-05T01:46:22.848Z,3.49
2019-02-05T01:47:22.932Z,3.58
2019-02-05T01:48:23.023Z,3.58
2019-02-05T01:49:23.118Z,3.64
2019-02-05T01:50:23.192Z,3.65
2019-02-05T01:51:23.289Z,3.64
2019-02-05T01:52:23.384Z,3.65
2019-02-05T01:53:23.564Z,3.62
2019-02-05T01:54:23.558Z,3.61
2019-02-05T01:55:23.631Z,3.61
2019-02-05T01:56:23.839Z,3.65
2019-02-05T01:57:23.811Z,3.49
2019-02-05T01:58:23.891Z,3.40
2019-02-05T01:59:23.976Z,3.31
2019-02-05T02:00:24.066Z,3.31
2019-02-05T02:01:24.152Z,3.33
2019-02-05T02:02:24.241Z,3.43
2019-02-05T02:03:24.326Z,3.30
2019-02-05T02:04:24.407Z,3.44
2019-02-05T02:05:24.495Z,3.36
2019-02-05T02:06:24.605Z,3.42
2019-02-05T02:07:24.691Z,3.36
2019-02-05T02:08:24.776Z,3.24
2019-02-05T02:09:24.862Z,3.40
2019-02-05T02:10:24.955Z,3.42
2019-02-05T02:11:25.039Z,3.39
2019-02-05T02:12:25.127Z,3.42
2019-02-05T02:13:25.212Z,3.39
2019-02-05T02:14:25.296Z,3.42
2019-02-05T02:15:25.384Z,3.40
2019-02-05T02:16:25.477Z,3.44
2019-02-05T02:17:25.563Z,3.34
2019-02-05T02:18:25.665Z,3.40
2019-02-05T02:19:25.737Z,3.34
2019-02-05T02:20:25.825Z,3.31
2019-02-05T02:21:25.912Z,3.24
2019-02-05T02:22:26.001Z,3.33
2019-02-05T02:23:26.086Z,3.30
2019-02-05T02:24:26.161Z,3.25
2019-02-05T02:25:26.256Z,3.33
2019-02-05T02:26:26.335Z,3.28
2019-02-05T02:27:26.422Z,3.31
2019-02-05T02:28:26.510Z,3.34
2019-02-05T02:29:26.600Z,3.25
2019-02-05T02:30:26.702Z,3.27
2019-02-05T02:31:26.770Z,3.30
2019-02-05T02:32:26.956Z,3.28
2019-02-05T02:33:26.950Z,3.28
2019-02-05T02:34:27.040Z,3.18
2019-02-05T02:35:27.119Z,3.21
2019-02-05T02:36:27.207Z,3.23
2019-02-05T02:37:27.294Z,3.21
2019-02-05T02:38:27.393Z,3.23
2019-02-05T02:39:27.480Z,3.25
2019-02-05T02:40:27.569Z,3.31
2019-02-05T02:41:27.675Z,3.28
2019-02-05T02:42:27.752Z,3.21
2019-02-05T02:43:27.842Z,3.31
2019-02-05T02:44:27.925Z,3.21
2019-02-05T02:45:28.018Z,3.21
2019-02-05T02:46:28.098Z,3.21
2019-02-05T02:47:28.240Z,3.20
2019-02-05T02:48:28.269Z,3.28
2019-02-05T02:49:28.377Z,3.21
2019-02-05T02:50:28.465Z,3.33
2019-02-05T02:51:28.547Z,3.25
2019-02-05T02:52:28.634Z,3.30
2019-02-05T02:53:28.723Z,3.24
2019-02-05T02:54:28.810Z,3.31
2019-02-05T02:55:28.899Z,3.33
2019-02-05T02:56:28.988Z,3.40
2019-02-05T02:57:29.066Z,3.34
2019-02-05T02:58:29.158Z,3.36
2019-02-05T02:59:29.248Z,3.47
2019-02-05T03:00:29.334Z,3.47
2019-02-05T03:01:29.426Z,3.43
2019-02-05T03:02:29.507Z,3.52
2019-02-05T03:03:29.597Z,3.49
2019-02-05T03:04:29.687Z,3.46
2019-02-05T03:05:29.775Z,3.54
2019-02-05T03:06:29.853Z,3.62
2019-02-05T03:07:29.939Z,3.58
2019-02-05T03:08:30.030Z,3.70
2019-02-05T03:09:30.114Z,3.76
2019-02-05T03:10:30.206Z,3.83
2019-02-05T03:11:30.290Z,3.76
2019-02-05T03:12:30.378Z,3.79
2019-02-05T03:13:30.466Z,3.90
2019-02-05T03:14:30.547Z,3.85
2019-02-05T03:15:30.633Z,3.96
2019-02-05T03:16:30.714Z,3.97
2019-02-05T03:17:30.808Z,3.92
2019-02-05T03:18:30.892Z,3.92
2019-02-05T03:19:30.983Z,3.88
2019-02-05T03:20:31.063Z,3.96
2019-02-05T03:21:31.149Z,3.89
2019-02-05T03:22:31.235Z,4.00
2019-02-05T03:23:31.319Z,3.92
2019-02-05T03:24:31.401Z,3.97
2019-02-05T03:25:31.524Z,3.97
2019-02-05T03:26:31.596Z,3.97
2019-02-05T03:27:31.698Z,4.08
2019-02-05T03:28:31.795Z,4.03
2019-02-05T03:29:31.873Z,4.01
2019-02-05T03:30:31.974Z,3.98
2019-02-05T03:31:32.051Z,4.06
2019-02-05T03:32:32.182Z,4.03
2019-02-05T03:33:32.246Z,3.97
2019-02-05T03:34:32.336Z,4.06
2019-02-05T03:35:32.425Z,4.00
2019-02-05T03:36:32.507Z,3.98
2019-02-05T03:37:32.619Z,4.03
2019-02-05T03:38:32.692Z,4.01
2019-02-05T03:39:32.779Z,3.88
2019-02-05T03:40:32.861Z,3.90
2019-02-05T03:41:32.952Z,3.88
2019-02-05T03:42:33.035Z,4.04
2019-02-05T03:43:33.125Z,3.97
2019-02-05T03:44:33.208Z,3.96
2019-02-05T03:45:33.295Z,4.04
2019-02-05T03:46:33.381Z,3.96
2019-02-05T03:47:33.470Z,4.06
2019-02-05T03:48:33.550Z,3.94
2019-02-05T03:49:33.639Z,3.94
2019-02-05T03:50:33.726Z,4.01
2019-02-05T03:51:33.814Z,4.03
2019-02-05T03:52:33.898Z,4.04
2019-02-05T03:53:33.981Z,3.96
2019-02-05T03:54:34.064Z,4.04
2019-02-05T03:55:34.154Z,4.04
2019-02-05T03:56:34.248Z,4.12
2019-02-05T03:57:34.320Z,4.10
2019-02-05T03:58:34.413Z,4.06
2019-02-05T03:59:34.489Z,4.04
2019-02-05T04:00:34.581Z,4.10
2019-02-05T04:01:34.666Z,4.10
2019-02-05T04:02:34.748Z,4.10
2019-02-05T04:03:34.839Z,3.97
2019-02-05T04:04:34.918Z,4.01
2019-02-05T04:05:34.993Z,4.01
2019-02-05T04:06:35.078Z,4.04
2019-02-05T04:07:35.165Z,4.04
2019-02-05T04:08:35.251Z,3.98
2019-02-05T04:09:35.337Z,4.01
2019-02-05T04:10:35.430Z,4.01
2019-02-05T04:11:35.513Z,4.04
2019-02-05T04:12:35.605Z,3.98
2019-02-05T04:13:35.695Z,4.00
2019-02-05T04:14:35.778Z,4.01
2019-02-05T04:15:35.868Z,4.10
2019-02-05T04:16:35.956Z,3.96
2019-02-05T04:17:36.047Z,4.06
2019-02-05T04:18:36.133Z,4.08
2019-02-05T04:19:36.222Z,4.03
2019-02-05T04:20:36.306Z,4.14
2019-02-05T04:21:36.395Z,4.04
2019-02-05T04:22:36.477Z,4.06
2019-02-05T04:23:36.573Z,4.04
2019-02-05T04:24:36.658Z,4.06
2019-02-05T04:25:36.745Z,4.07
2019-02-05T04:26:36.838Z,4.15
2019-02-05T04:27:44.167Z,4.12
2019-02-05T04:28:37.015Z,4.19
2019-02-05T04:29:37.093Z,4.18
2019-02-05T04:30:37.186Z,4.06
2019-02-05T04:31:37.289Z,4.07
2019-02-05T04:32:37.376Z,4.07
2019-02-05T04:33:37.463Z,4.06
2019-02-05T04:34:37.556Z,4.15
2019-02-05T04:35:37.638Z,4.08
2019-02-05T04:36:37.721Z,4.00
2019-02-05T04:37:37.808Z,4.00
2019-02-05T04:38:37.900Z,4.10
2019-02-05T04:39:37.982Z,4.10
2019-02-05T04:40:38.066Z,4.10
2019-02-05T04:41:38.157Z,4.03
2019-02-05T04:42:38.243Z,4.04
2019-02-05T04:43:38.322Z,3.89
2019-02-05T04:44:38.406Z,3.67
2019-02-05T04:45:38.499Z,3.46
2019-02-05T04:46:38.582Z,3.44
2019-02-05T04:47:38.668Z,3.52
2019-02-05T04:48:38.764Z,3.42
2019-02-05T04:49:38.846Z,3.47
2019-02-05T04:50:38.936Z,3.61
2019-02-05T04:51:39.057Z,3.62
2019-02-05T04:52:39.115Z,3.67
2019-02-05T04:53:39.201Z,3.64
2019-02-05T04:54:39.283Z,3.72
2019-02-05T04:55:39.365Z,3.75
2019-02-05T04:56:39.455Z,3.85
2019-02-05T04:57:39.543Z,3.94
2019-02-05T04:58:39.623Z,3.96
2019-02-05T04:59:39.705Z,3.98
2019-02-05T05:00:39.794Z,4.04
2019-02-05T05:01:39.880Z,4.04
2019-02-05T05:02:39.974Z,4.01
2019-02-05T05:03:40.075Z,4.08
2019-02-05T05:04:40.146Z,4.04
2019-02-05T05:05:40.242Z,4.08
2019-02-05T05:06:40.329Z,4.06
2019-02-05T05:07:40.417Z,4.15
2019-02-05T05:08:40.498Z,4.16
2019-02-05T05:09:40.587Z,4.15
2019-02-05T05:10:40.673Z,4.18
2019-02-05T05:11:41.260Z,4.25
2019-02-05T05:12:40.845Z,4.22
2019-02-05T05:13:40.950Z,4.24
2019-02-05T05:14:41.017Z,4.25
2019-02-05T05:15:41.107Z,4.16
2019-02-05T05:16:41.196Z,4.12
2019-02-05T05:17:41.280Z,4.16
2019-02-05T05:18:41.370Z,4.10
2019-02-05T05:19:41.460Z,4.19
2019-02-05T05:20:41.544Z,4.07
2019-02-05T05:21:41.632Z,4.10
2019-02-05T05:22:41.747Z,4.08
2019-02-05T05:23:41.829Z,4.12
2019-02-05T05:24:41.912Z,4.12
2019-02-05T05:25:42.006Z,4.08
2019-02-05T05:26:42.096Z,4.12
2019-02-05T05:27:42.181Z,4.04
2019-02-05T05:28:42.264Z,3.97
2019-02-05T05:29:42.356Z,3.96
2019-02-05T05:30:42.449Z,4.00
2019-02-05T05:31:42.532Z,3.90
2019-02-05T05:32:42.629Z,3.89
2019-02-05T05:33:42.714Z,3.86
2019-02-05T05:34:42.800Z,3.96
2019-02-05T05:35:44.588Z,3.92
2019-02-05T05:36:42.973Z,3.89
2019-02-05T05:37:43.063Z,3.85
2019-02-05T05:38:43.153Z,4.00
2019-02-05T05:39:43.240Z,3.89
2019-02-05T05:40:43.326Z,3.97
2019-02-05T05:41:43.410Z,3.97
2019-02-05T05:42:43.491Z,4.08
2019-02-05T05:43:43.581Z,4.08
2019-02-05T05:44:43.670Z,4.04
2019-02-05T05:45:43.761Z,4.01
2019-02-05T05:46:43.845Z,4.04
2019-02-05T05:47:43.935Z,4.08
2019-02-05T05:48:44.016Z,4.14
2019-02-05T05:49:44.102Z,4.10
2019-02-05T05:50:44.316Z,4.14
2019-02-05T05:51:44.284Z,4.10
2019-02-05T05:52:44.365Z,4.00
2019-02-05T05:53:44.458Z,3.98
2019-02-05T05:54:44.542Z,4.00
2019-02-05T05:55:44.635Z,4.00
2019-02-05T05:56:44.719Z,3.98
2019-02-05T05:57:44.804Z,3.94
2019-02-05T05:58:44.889Z,3.97
2019-02-05T05:59:44.999Z,3.94
2019-02-05T06:00:45.084Z,3.94
2019-02-05T06:01:45.179Z,3.94
2019-02-05T06:02:45.260Z,3.98
2019-02-05T06:03:45.352Z,3.90
2019-02-05T06:04:45.447Z,3.96
2019-02-05T06:05:45.531Z,3.89
2019-02-05T06:06:45.625Z,3.89
2019-02-05T06:07:45.705Z,3.90
2019-02-05T06:08:45.795Z,3.94
2019-02-05T06:09:45.885Z,3.86
2019-02-05T06:10:45.972Z,3.94
2019-02-05T06:11:46.070Z,3.92
2019-02-05T06:12:46.157Z,3.97
2019-02-05T06:13:46.249Z,3.88
2019-02-05T06:14:46.327Z,3.72
2019-02-05T06:15:46.411Z,3.92
2019-02-05T06:16:46.500Z,3.89
2019-02-05T06:17:46.593Z,3.71
2019-02-05T06:18:46.677Z,3.92
2019-02-05T06:19:46.762Z,3.90
2019-02-05T06:20:46.848Z,3.92
2019-02-05T06:21:46.938Z,4.01
2019-02-05T06:22:47.027Z,4.00
2019-02-05T06:23:47.119Z,3.96
2019-02-05T06:24:47.204Z,3.90
2019-02-05T06:25:47.291Z,4.03
2019-02-05T06:26:47.380Z,4.10
2019-02-05T06:27:47.474Z,4.07
2019-02-05T06:28:47.559Z,4.10
2019-02-05T06:29:47.645Z,4.14
2019-02-05T06:30:47.759Z,4.07
2019-02-05T06:31:47.823Z,4.10
2019-02-05T06:32:47.923Z,4.15
2019-02-05T06:33:47.993Z,4.21
2019-02-05T06:34:48.079Z,4.10
2019-02-05T06:35:48.176Z,4.14
2019-02-05T06:36:48.261Z,4.28
2019-02-05T06:37:48.649Z,4.19
2019-02-05T06:38:48.385Z,4.24
2019-02-05T06:39:48.477Z,4.25
2019-02-05T06:40:48.564Z,4.24
2019-02-05T06:41:48.656Z,4.24
2019-02-05T06:42:48.738Z,4.29
2019-02-05T06:43:48.826Z,4.10
2019-02-05T06:44:48.917Z,4.06
2019-02-05T06:45:49.004Z,4.12
2019-02-05T06:46:49.092Z,4.10
2019-02-05T06:47:49.181Z,4.24
2019-02-05T06:48:49.281Z,4.19
2019-02-05T06:49:49.386Z,4.19
2019-02-05T06:50:49.477Z,4.24
2019-02-05T06:51:49.565Z,4.25
2019-02-05T06:52:49.654Z,4.22
2019-02-05T06:53:49.739Z,4.25
2019-02-05T06:54:49.825Z,4.26
2019-02-05T06:55:49.908Z,4.22
2019-02-05T06:56:49.996Z,4.25
2019-02-05T06:57:50.095Z,4.15
2019-02-05T06:58:50.176Z,4.18
2019-02-05T06:59:50.261Z,4.25
2019-02-05T07:00:50.349Z,4.10
2019-02-05T07:01:50.430Z,4.18
2019-02-05T07:02:52.903Z,4.16
2019-02-05T07:03:50.610Z,4.22
2019-02-05T07:04:50.701Z,4.16
2019-02-05T07:05:50.785Z,4.16
2019-02-05T07:06:50.879Z,4.15
2019-02-05T07:07:50.956Z,4.21
2019-02-05T07:08:51.042Z,4.14
2019-02-05T07:09:51.131Z,4.12
2019-02-05T07:10:51.217Z,4.15
2019-02-05T07:11:51.307Z,4.10
2019-02-05T07:12:51.396Z,4.19
2019-02-05T07:13:51.480Z,4.28
2019-02-05T07:14:51.582Z,4.19
2019-02-05T07:15:51.665Z,4.24
2019-02-05T07:16:51.759Z,4.18
2019-02-05T07:17:51.849Z,4.08
2019-02-05T07:18:51.941Z,4.21
2019-02-05T07:19:52.037Z,4.22
2019-02-05T07:20:52.126Z,4.26
2019-02-05T07:21:52.215Z,4.24
2019-02-05T07:22:52.305Z,4.22
2019-02-05T07:23:52.388Z,4.29
2019-02-05T07:24:52.479Z,4.32
2019-02-05T07:25:52.566Z,4.43
2019-02-05T07:26:52.658Z,4.39
2019-02-05T07:27:52.751Z,4.34
2019-02-05T07:28:59.974Z,4.36
2019-02-05T07:29:52.918Z,4.26
2019-02-05T07:30:53.000Z,4.26
2019-02-05T07:31:53.095Z,4.34
2019-02-05T07:32:53.170Z,4.28
2019-02-05T07:33:53.268Z,4.28
2019-02-05T07:34:53.345Z,4.32
2019-02-05T07:35:53.435Z,4.28
2019-02-05T07:36:53.528Z,4.22
2019-02-05T07:37:53.618Z,4.19
2019-02-05T07:39:02.357Z,4.26
2019-02-05T07:39:53.824Z,4.24
2019-02-05T07:40:53.912Z,4.19
2019-02-05T07:41:54.000Z,4.36
2019-02-05T07:42:54.087Z,4.39
2019-02-05T07:43:54.176Z,4.37
2019-02-05T07:44:54.275Z,4.51
2019-02-05T07:45:54.363Z,4.46
2019-02-05T07:46:54.453Z,4.43
2019-02-05T07:47:54.541Z,4.46
2019-02-05T07:48:54.626Z,4.46
2019-02-05T07:49:54.717Z,4.50
2019-02-05T07:50:54.803Z,4.50
2019-02-05T07:51:54.890Z,4.32
2019-02-05T07:52:54.978Z,4.37
2019-02-05T07:53:55.068Z,4.37
2019-02-05T07:54:55.153Z,4.50
2019-02-05T07:55:55.243Z,4.43
2019-02-05T07:56:55.331Z,4.54
2019-02-05T07:57:55.418Z,4.51
2019-02-05T07:58:55.506Z,4.51
2019-02-05T07:59:55.594Z,4.55
2019-02-05T08:00:55.681Z,4.61
2019-02-05T08:01:55.768Z,4.62
2019-02-05T08:02:55.861Z,4.65
2019-02-05T08:03:55.957Z,4.69
2019-02-05T08:04:56.023Z,4.72
2019-02-05T08:05:56.117Z,4.72
2019-02-05T08:06:56.205Z,4.76
2019-02-05T08:07:56.292Z,4.73
2019-02-05T08:08:56.388Z,4.64
2019-02-05T08:09:56.458Z,4.76
2019-02-05T08:10:56.547Z,4.64
2019-02-05T08:11:56.636Z,4.65
2019-02-05T08:12:56.723Z,4.64
2019-02-05T08:13:56.813Z,4.61
2019-02-05T08:14:56.901Z,4.72
2019-02-05T08:15:56.976Z,4.59
2019-02-05T08:16:57.078Z,4.65
2019-02-05T08:17:57.172Z,4.76
2019-02-05T08:18:57.254Z,4.72
2019-02-05T08:19:57.345Z,4.72
2019-02-05T08:20:57.480Z,4.77
2019-02-05T08:21:57.567Z,4.64
2019-02-05T08:22:57.654Z,4.67
2019-02-05T08:23:57.745Z,4.75
2019-02-05T08:24:57.831Z,4.72
2019-02-05T08:25:57.918Z,4.80
2019-02-05T08:26:58.006Z,4.79
2019-02-05T08:27:58.101Z,4.84
2019-02-05T08:28:58.182Z,4.80
2019-02-05T08:29:58.266Z,4.77
2019-02-05T08:30:58.354Z,4.88
2019-02-05T08:31:58.441Z,4.86
2019-02-05T08:32:58.530Z,4.88
2019-02-05T08:33:58.621Z,4.73
2019-02-05T08:34:58.699Z,4.83
2019-02-05T08:35:58.787Z,4.79
2019-02-05T08:36:58.876Z,4.86
2019-02-05T08:37:58.965Z,4.91
2019-02-05T08:38:59.056Z,4.91
2019-02-05T08:39:59.143Z,4.96
2019-02-05T08:40:59.235Z,5.13
2019-02-05T08:41:59.319Z,5.01
2019-02-05T08:42:59.406Z,5.10
2019-02-05T08:43:59.494Z,5.14
2019-02-05T08:44:59.580Z,5.16
2019-02-05T08:45:59.673Z,5.13
2019-02-05T08:46:59.764Z,5.14
2019-02-05T08:47:59.854Z,5.04
2019-02-05T08:48:59.937Z,5.16
2019-02-05T08:50:00.026Z,5.04
2019-02-05T08:51:00.174Z,4.91
2019-02-05T08:52:00.202Z,4.99
2019-02-05T08:53:00.304Z,5.14
2019-02-05T08:54:00.391Z,5.12
2019-02-05T08:55:00.480Z,5.14
2019-02-05T08:56:00.569Z,5.05
2019-02-05T08:57:00.660Z,4.91
2019-02-05T08:58:00.748Z,4.99
2019-02-05T08:59:00.840Z,5.09
2019-02-05T09:00:00.920Z,5.12
2019-02-05T09:01:01.010Z,5.14
2019-02-05T09:02:01.099Z,5.05
2019-02-05T09:03:01.184Z,5.07
2019-02-05T09:04:01.270Z,5.13
2019-02-05T09:05:01.362Z,5.28
2019-02-05T09:06:01.449Z,5.22
2019-02-05T09:07:01.540Z,5.23
2019-02-05T09:08:01.624Z,5.12
2019-02-05T09:09:01.713Z,5.14
2019-02-05T09:10:01.800Z,5.23
2019-02-05T09:11:01.892Z,5.23
2019-02-05T09:12:01.973Z,5.32
2019-02-05T09:13:02.065Z,5.34
2019-02-05T09:14:10.602Z,5.22
2019-02-05T09:15:02.241Z,5.28
2019-02-05T09:16:02.331Z,5.25
2019-02-05T09:17:02.418Z,5.22
2019-02-05T09:18:02.508Z,5.32
2019-02-05T09:19:02.601Z,5.31
2019-02-05T09:20:02.692Z,5.28
2019-02-05T09:21:02.767Z,5.38
2019-02-05T09:22:02.853Z,5.37
2019-02-05T09:23:02.942Z,5.40
2019-02-05T09:24:03.036Z,5.40
2019-02-05T09:25:03.122Z,5.49
2019-02-05T09:26:03.212Z,5.59
2019-02-05T09:27:03.301Z,5.52
2019-02-05T09:28:03.391Z,5.66
2019-02-05T09:29:03.477Z,5.70
2019-02-05T09:30:03.573Z,5.78
2019-02-05T09:31:03.661Z,5.83
2019-02-05T09:32:03.751Z,5.78
2019-02-05T09:33:03.951Z,5.83
2019-02-05T09:34:03.922Z,5.77
2019-02-05T09:35:04.010Z,5.77
2019-02-05T09:36:04.100Z,5.92
2019-02-05T09:37:04.188Z,5.93
2019-02-05T09:38:04.278Z,5.95
2019-02-05T09:39:04.365Z,5.93
2019-02-05T09:40:04.456Z,5.98
2019-02-05T09:41:04.545Z,5.82
2019-02-05T09:42:04.635Z,5.96
2019-02-05T09:43:04.723Z,5.95
2019-02-05T09:44:04.811Z,5.96
2019-02-05T09:45:04.901Z,6.07
2019-02-05T09:46:04.993Z,6.10
2019-02-05T09:47:05.080Z,6.10
2019-02-05T09:48:05.170Z,6.10
2019-02-05T09:49:05.256Z,6.11
2019-02-05T09:50:05.343Z,6.25
2019-02-05T09:51:05.432Z,6.26
2019-02-05T09:52:05.523Z,6.25
2019-02-05T09:53:05.613Z,6.30
2019-02-05T09:54:05.701Z,6.28
2019-02-05T09:55:05.816Z,6.28
2019-02-05T09:56:05.993Z,6.32
2019-02-05T09:57:05.991Z,6.26
2019-02-05T09:58:06.082Z,6.26
2019-02-05T09:59:06.171Z,6.11
2019-02-05T10:00:06.259Z,6.00
2019-02-05T10:01:06.348Z,5.98
2019-02-05T10:02:06.442Z,5.92
2019-02-05T10:03:06.537Z,5.98
2019-02-05T10:04:06.613Z,5.78
2019-02-05T10:05:06.703Z,5.73
2019-02-05T10:06:06.792Z,5.86
2019-02-05T10:07:06.887Z,5.81
2019-02-05T10:08:06.975Z,5.83
2019-02-05T10:09:07.065Z,5.75
2019-02-05T10:10:07.148Z,5.91
2019-02-05T10:11:07.247Z,5.92
2019-02-05T10:12:07.333Z,5.96
2019-02-05T10:13:07.423Z,6.01
2019-02-05T10:14:07.514Z,6.07
2019-02-05T10:15:07.599Z,6.00
2019-02-05T10:16:07.693Z,6.00
2019-02-05T10:17:07.780Z,6.11
2019-02-05T10:18:07.866Z,6.01
2019-02-05T10:19:07.960Z,6.00
2019-02-05T10:20:08.045Z,6.11
2019-02-05T10:21:08.136Z,5.91
2019-02-05T10:22:08.222Z,6.04
2019-02-05T10:23:08.311Z,6.13
2019-02-05T10:24:08.400Z,6.14
2019-02-05T10:25:08.487Z,6.26
2019-02-05T10:26:08.581Z,6.28
2019-02-05T10:27:08.671Z,6.22
2019-02-05T10:28:08.760Z,6.29
2019-02-05T10:29:08.853Z,6.30
2019-02-05T10:30:08.938Z,6.43
2019-02-05T10:31:09.028Z,6.44
2019-02-05T10:32:09.113Z,6.53
2019-02-05T10:33:09.200Z,6.66
2019-02-05T10:34:09.289Z,6.65
2019-02-05T10:35:09.367Z,6.54
2019-02-05T10:36:09.469Z,6.47
2019-02-05T10:37:09.558Z,6.43
2019-02-05T10:38:09.647Z,6.48
2019-02-05T10:39:09.739Z,6.46
2019-02-05T10:40:09.826Z,6.51
2019-02-05T10:41:09.925Z,6.46
2019-02-05T10:42:10.015Z,6.47
2019-02-05T10:43:10.104Z,6.36
2019-02-05T10:44:10.195Z,6.51
2019-02-05T10:45:10.288Z,6.41
2019-02-05T10:46:10.377Z,6.35
2019-02-05T10:47:10.468Z,6.30
2019-02-05T10:48:10.658Z,6.32
2019-02-05T10:49:10.649Z,6.43
2019-02-05T10:50:10.733Z,6.28
2019-02-05T10:51:10.824Z,6.36
2019-02-05T10:52:10.914Z,6.43
2019-02-05T10:53:11.003Z,6.29
2019-02-05T10:54:11.096Z,6.28
2019-02-05T10:55:11.182Z,6.30
2019-02-05T10:56:11.272Z,6.29
2019-02-05T10:57:11.361Z,6.32
2019-02-05T10:58:11.444Z,6.38
2019-02-05T10:59:11.531Z,6.36
2019-02-05T11:00:11.612Z,6.56
2019-02-05T11:01:11.713Z,6.51
2019-02-05T11:02:11.803Z,6.50
2019-02-05T11:03:11.893Z,6.58
2019-02-05T11:04:11.986Z,6.51
2019-02-05T11:05:12.072Z,6.56
2019-02-05T11:06:12.180Z,6.51
2019-02-05T11:07:12.274Z,6.44
2019-02-05T11:08:12.361Z,6.32
2019-02-05T11:09:12.455Z,6.38
2019-02-05T11:10:12.545Z,6.36
2019-02-05T11:11:12.633Z,6.36
2019-02-05T11:12:12.722Z,6.35
2019-02-05T11:13:12.811Z,6.22
2019-02-05T11:14:12.898Z,6.28
2019-02-05T11:15:12.988Z,6.32
2019-02-05T11:16:13.078Z,6.43
2019-02-05T11:17:13.168Z,6.43
2019-02-05T11:18:13.260Z,6.41
2019-02-05T11:19:13.339Z,6.43
2019-02-05T11:20:13.431Z,6.38
2019-02-05T11:21:13.527Z,6.36
2019-02-05T11:22:13.609Z,6.25
2019-02-05T11:23:13.701Z,6.18
2019-02-05T11:24:13.790Z,6.28
2019-02-05T11:25:13.882Z,6.09
2019-02-05T11:26:13.967Z,6.26
2019-02-05T11:27:14.056Z,6.29
2019-02-05T11:28:14.147Z,6.18
2019-02-05T11:29:14.243Z,6.25
2019-02-05T11:30:20.211Z,6.35
2019-02-05T11:31:14.426Z,6.40
2019-02-05T11:32:14.516Z,6.43
2019-02-05T11:33:14.602Z,6.29
2019-02-05T11:34:14.692Z,6.30
2019-02-05T11:35:14.783Z,6.36
2019-02-05T11:36:14.870Z,6.38
2019-02-05T11:37:14.962Z,6.41
2019-02-05T11:38:15.049Z,6.44
2019-02-05T11:39:15.140Z,6.47
2019-02-05T11:40:15.228Z,6.46
2019-02-05T11:41:15.319Z,6.41
2019-02-05T11:42:15.409Z,6.51
2019-02-05T11:43:15.499Z,6.50
2019-02-05T11:44:15.589Z,6.51
2019-02-05T11:45:15.680Z,6.58
2019-02-05T11:46:15.774Z,6.48
2019-02-05T11:47:15.860Z,6.58
2019-02-05T11:48:15.954Z,6.53
2019-02-05T11:49:16.038Z,6.62
2019-02-05T11:50:16.130Z,6.53
2019-02-05T11:51:16.219Z,6.68
2019-02-05T11:52:16.308Z,6.59
2019-02-05T11:53:16.397Z,6.63
2019-02-05T11:54:16.487Z,6.68
2019-02-05T11:55:16.573Z,6.72
2019-02-05T11:56:16.668Z,6.77
2019-02-05T11:57:16.754Z,6.73
2019-02-05T11:58:16.844Z,6.77
2019-02-05T11:59:16.932Z,6.84
2019-02-05T12:00:17.023Z,6.68
2019-02-05T12:01:17.115Z,6.76
2019-02-05T12:02:17.207Z,6.73
2019-02-05T12:03:17.295Z,6.86
2019-02-05T12:04:17.387Z,6.84
2019-02-05T12:05:17.476Z,6.86
2019-02-05T12:06:17.568Z,6.89
2019-02-05T12:07:17.659Z,6.76
2019-02-05T12:08:18.624Z,6.83
2019-02-05T12:09:17.826Z,6.81
2019-02-05T12:10:17.927Z,6.66
2019-02-05T12:11:18.018Z,6.76
2019-02-05T12:12:18.110Z,6.83
2019-02-05T12:13:18.200Z,6.77
2019-02-05T12:14:18.291Z,6.89
2019-02-05T12:15:18.395Z,7.05
2019-02-05T12:16:18.487Z,7.01
2019-02-05T12:17:18.578Z,7.04
2019-02-05T12:18:18.670Z,7.05
2019-02-05T12:19:18.758Z,7.05
2019-02-05T12:20:18.851Z,7.05
2019-02-05T12:21:18.938Z,7.07
2019-02-05T12:22:19.030Z,7.05
2019-02-05T12:23:19.121Z,7.05
2019-02-05T12:24:19.209Z,7.15
2019-02-05T12:25:19.299Z,7.08
2019-02-05T12:26:19.390Z,7.15
2019-02-05T12:27:20.408Z,7.01
2019-02-05T12:28:19.564Z,7.12
2019-02-05T12:29:19.648Z,7.15
2019-02-05T12:30:19.742Z,7.19
2019-02-05T12:31:19.835Z,7.19
2019-02-05T12:32:19.925Z,7.26
2019-02-05T12:33:20.015Z,7.24
2019-02-05T12:34:20.103Z,7.17
2019-02-05T12:35:20.197Z,7.31
2019-02-05T12:36:20.289Z,7.24
2019-02-05T12:37:20.378Z,7.24
2019-02-05T12:38:20.473Z,7.26
2019-02-05T12:39:20.561Z,7.40
2019-02-05T12:40:20.649Z,7.38
2019-02-05T12:41:20.741Z,7.45
2019-02-05T12:42:20.831Z,7.49
2019-02-05T12:43:20.935Z,7.52
2019-02-05T12:44:21.000Z,7.58
2019-02-05T12:45:21.089Z,7.59
2019-02-05T12:46:21.179Z,7.71
2019-02-05T12:47:21.269Z,7.53
2019-02-05T12:48:21.360Z,7.29
2019-02-05T12:49:21.455Z,7.15
2019-02-05T12:50:21.542Z,7.22
2019-02-05T12:51:21.633Z,7.29
2019-02-05T12:52:21.724Z,7.41
2019-02-05T12:53:21.817Z,7.31
2019-02-05T12:54:21.906Z,7.19
2019-02-05T12:55:21.998Z,7.23
2019-02-05T12:56:22.090Z,7.34
2019-02-05T12:57:22.186Z,7.38
2019-02-05T12:58:22.270Z,7.53
2019-02-05T12:59:22.361Z,7.45
2019-02-05T13:00:22.450Z,7.55
2019-02-05T13:01:22.541Z,7.60
2019-02-05T13:02:22.629Z,7.69
2019-02-05T13:03:22.719Z,7.84
2019-02-05T13:04:22.813Z,7.81
2019-02-05T13:05:22.903Z,7.81
2019-02-05T13:06:22.994Z,7.85
2019-02-05T13:07:23.083Z,7.84
2019-02-05T13:08:23.170Z,7.84
2019-02-05T13:09:23.264Z,7.79
2019-02-05T13:10:23.354Z,7.93
2019-02-05T13:11:23.444Z,7.90
2019-02-05T13:12:23.536Z,7.96
2019-02-05T13:13:23.628Z,8.00
2019-02-05T13:14:23.713Z,8.02
2019-02-05T13:15:23.809Z,7.90
2019-02-05T13:16:23.936Z,7.97
2019-02-05T13:17:23.992Z,7.94
2019-02-05T13:18:24.082Z,7.94
2019-02-05T13:19:24.171Z,7.77